createdAt,value
2022-12-08T00:03:33.857Z,3.10
2022-12-08T00:08:54.714Z,3.10
2022-12-08T00:13:56.906Z,3.10
2022-12-08T00:18:59.230Z,3.10
2022-12-08T00:24:01.462Z,3.00
2022-12-08T00:29:03.918Z,3.00
2022-12-08T00:34:06.891Z,2.90
2022-12-08T00:39:13.283Z,2.90
2022-12-08T00:44:19.043Z,2.80
2022-12-08T00:49:21.874Z,2.80
2022-12-08T00:54:24.487Z,2.80
2022-12-08T00:59:26.670Z,2.70
2022-12-08T01:04:28.918Z,2.50
2022-12-08T01:09:31.082Z,2.40
2022-12-08T01:14:33.395Z,2.40
2022-12-08T01:19:35.617Z,2.30
2022-12-08T01:24:37.937Z,2.40
2022-12-08T01:29:40.782Z,2.40
2022-12-08T01:34:43.080Z,2.40
2022-12-08T01:39:45.270Z,2.40
2022-12-08T01:44:56.181Z,2.30
2022-12-08T01:49:59.373Z,2.20
2022-12-08T01:55:20.627Z,2.20
2022-12-08T02:00:23.470Z,2.20
2022-12-08T02:05:32.165Z,2.20
2022-12-08T02:10:37.520Z,2.30
2022-12-08T02:15:50.979Z,2.30
2022-12-08T02:21:23.958Z,2.40
2022-12-08T02:26:47.553Z,2.30
2022-12-08T02:32:20.505Z,2.30
2022-12-08T02:37:51.808Z,2.50
2022-12-08T02:43:31.780Z,2.50
2022-12-08T02:48:35.169Z,2.20
2022-12-08T02:53:37.542Z,2.10
2022-12-08T02:58:58.086Z,2.10
2022-12-08T03:04:12.450Z,2.40
2022-12-08T03:09:22.728Z,2.40
2022-12-08T03:14:25.949Z,2.40
2022-12-08T03:19:34.558Z,2.50
2022-12-08T03:24:39.628Z,2.50
2022-12-08T03:29:41.892Z,2.60
2022-12-08T03:34:47.396Z,2.60
2022-12-08T03:39:49.630Z,2.70
2022-12-08T03:44:51.813Z,2.70
2022-12-08T03:49:54.002Z,2.80
2022-12-08T03:54:56.145Z,2.90
2022-12-08T03:59:58.317Z,2.80
2022-12-08T04:05:00.626Z,2.70
2022-12-08T04:10:03.335Z,2.70
2022-12-08T04:15:06.455Z,2.70
2022-12-08T04:20:09.024Z,2.70
2022-12-08T04:25:11.250Z,2.80
2022-12-08T04:30:13.602Z,2.80
2022-12-08T04:35:16.003Z,2.80
2022-12-08T04:40:18.696Z,2.80
2022-12-08T04:45:20.906Z,2.80
2022-12-08T04:50:23.065Z,2.70
2022-12-08T04:55:25.275Z,2.70
2022-12-08T05:00:27.443Z,2.80
2022-12-08T05:05:29.596Z,2.80
2022-12-08T05:10:32.214Z,2.80
2022-12-08T05:15:34.448Z,3.00
2022-12-08T05:20:36.974Z,3.00
2022-12-08T05:25:39.118Z,3.00
2022-12-08T05:30:41.276Z,2.90
2022-12-08T05:35:43.472Z,3.10
2022-12-08T05:40:45.851Z,2.70
2022-12-08T05:45:48.120Z,2.70
2022-12-08T05:50:51.227Z,2.50
2022-12-08T05:55:54.106Z,2.50
2022-12-08T06:00:56.429Z,2.60
2022-12-08T06:05:58.722Z,2.60
2022-12-08T06:11:01.056Z,2.70
2022-12-08T06:16:07.096Z,2.70
2022-12-08T06:21:11.798Z,2.80
2022-12-08T06:26:15.576Z,2.80
2022-12-08T06:31:20.811Z,2.80
2022-12-08T06:36:25.401Z,2.90
2022-12-08T06:41:27.649Z,2.80
2022-12-08T06:46:29.949Z,2.70
2022-12-08T06:51:32.149Z,2.70
2022-12-08T06:56:34.312Z,2.70
2022-12-08T07:01:36.920Z,2.60
2022-12-08T07:06:39.623Z,2.50
2022-12-08T07:11:41.899Z,2.60
2022-12-08T07:16:44.093Z,2.60
2022-12-08T07:21:46.396Z,2.60
2022-12-08T07:26:48.579Z,2.50
2022-12-08T07:31:50.803Z,2.40
2022-12-08T07:36:52.923Z,2.40
2022-12-08T07:41:55.057Z,2.30
2022-12-08T07:46:57.299Z,2.30
2022-12-08T07:51:59.443Z,2.40
2022-12-08T07:57:03.710Z,2.40
2022-12-08T08:02:23.490Z,2.30
2022-12-08T08:07:27.506Z,2.30
2022-12-08T08:12:31.693Z,2.20
2022-12-08T08:17:35.591Z,2.10
2022-12-08T08:22:37.886Z,2.00
2022-12-08T08:27:40.026Z,2.00
2022-12-08T08:32:42.591Z,1.90
2022-12-08T08:37:48.834Z,1.90
2022-12-08T08:42:52.193Z,1.90
2022-12-08T08:47:54.395Z,2.00
2022-12-08T08:52:57.058Z,2.00
2022-12-08T08:57:59.281Z,2.10
2022-12-08T09:03:02.135Z,2.20
2022-12-08T09:08:04.580Z,2.30
2022-12-08T09:13:06.790Z,2.30
2022-12-08T09:18:08.960Z,2.30
2022-12-08T09:23:11.082Z,2.30
2022-12-08T09:28:14.455Z,2.40
2022-12-08T09:33:16.609Z,2.70
2022-12-08T09:38:18.929Z,2.90
2022-12-08T09:43:48.992Z,3.00
2022-12-08T09:48:57.611Z,3.40
2022-12-08T09:54:12.767Z,3.40
2022-12-08T09:59:34.498Z,3.50
2022-12-08T10:04:38.357Z,3.50
2022-12-08T10:09:55.716Z,3.60
2022-12-08T10:15:13.428Z,3.70
2022-12-08T10:20:19.629Z,3.90
2022-12-08T10:25:30.483Z,4.10
2022-12-08T10:30:32.692Z,4.40
2022-12-08T10:35:44.207Z,4.70
2022-12-08T10:40:48.488Z,4.90
2022-12-08T10:45:51.524Z,5.10
2022-12-08T10:50:57.178Z,5.10
2022-12-08T10:56:02.395Z,5.20
2022-12-08T11:01:15.357Z,5.20
2022-12-08T11:06:38.863Z,5.40
2022-12-08T11:12:06.338Z,5.40
2022-12-08T11:17:24.903Z,5.40
2022-12-08T11:22:35.087Z,5.30
2022-12-08T11:27:44.398Z,5.30
2022-12-08T11:32:53.314Z,5.30
2022-12-08T11:38:21.712Z,6.00
2022-12-08T11:43:52.984Z,6.50
2022-12-08T11:49:09.567Z,6.80
2022-12-08T11:54:29.992Z,6.90
2022-12-08T11:59:49.623Z,6.70
2022-12-08T12:05:02.918Z,6.70
2022-12-08T12:10:19.924Z,6.70
2022-12-08T12:15:34.431Z,6.80
2022-12-08T12:20:52.567Z,7.00
2022-12-08T12:26:01.589Z,7.10
2022-12-08T12:31:09.333Z,7.10
2022-12-08T12:36:13.635Z,7.30
2022-12-08T12:41:25.349Z,7.60
2022-12-08T12:46:27.917Z,7.50
2022-12-08T12:51:47.605Z,7.50
2022-12-08T12:57:10.718Z,7.60
2022-12-08T13:02:27.993Z,7.80
2022-12-08T13:07:42.198Z,7.80
2022-12-08T13:12:46.063Z,7.80
2022-12-08T13:17:49.365Z,8.00
2022-12-08T13:22:54.574Z,8.00
2022-12-08T13:27:56.788Z,7.90
2022-12-08T13:33:18.400Z,8.00
2022-12-08T13:38:26.420Z,8.00
2022-12-08T13:43:51.295Z,7.90
2022-12-08T14:00:05.602Z,8.10
2022-12-08T14:05:35.245Z,8.00
2022-12-08T14:10:39.741Z,8.10
2022-12-08T14:15:42.190Z,8.00
2022-12-08T14:21:12.580Z,7.60
2022-12-08T14:26:07.302Z,7.30
2022-12-08T14:31:14.120Z,7.00
2022-12-08T14:36:17.363Z,7.20
2022-12-08T14:41:26.991Z,7.40
2022-12-08T14:46:29.620Z,7.60
2022-12-08T14:51:33.574Z,7.70
2022-12-08T14:56:43.505Z,7.60
2022-12-08T15:01:47.063Z,7.60
2022-12-08T15:07:23.247Z,7.50
2022-12-08T15:12:31.918Z,7.30
2022-12-08T15:17:36.969Z,7.20
2022-12-08T15:22:39.394Z,7.10
2022-12-08T15:27:50.194Z,7.00
2022-12-08T15:32:54.377Z,6.70
2022-12-08T15:37:56.854Z,6.50
2022-12-08T15:42:59.111Z,6.30
2022-12-08T15:48:01.429Z,6.10
2022-12-08T15:53:04.061Z,6.10
2022-12-08T16:09:06.373Z,5.90
2022-12-08T16:15:01.948Z,5.80
2022-12-08T16:19:36.537Z,5.70
2022-12-08T16:24:38.808Z,5.60
2022-12-08T16:29:47.048Z,5.50
2022-12-08T16:34:50.312Z,5.40
2022-12-08T16:39:54.292Z,5.30
2022-12-08T16:44:56.548Z,5.20
2022-12-08T16:49:58.790Z,5.30
2022-12-08T16:55:01.276Z,5.30
2022-12-08T17:00:10.165Z,5.30
2022-12-08T17:05:15.129Z,5.30
2022-12-08T17:10:23.770Z,5.20
2022-12-08T17:15:26.730Z,5.20
2022-12-08T17:20:29.895Z,5.20
2022-12-08T17:25:32.183Z,5.20
2022-12-08T17:30:34.422Z,5.10
2022-12-08T17:35:36.571Z,5.10
2022-12-08T17:40:38.794Z,5.10
2022-12-08T17:45:45.899Z,5.00
2022-12-08T17:50:48.417Z,5.00
2022-12-08T17:55:56.341Z,5.10
2022-12-08T18:00:58.682Z,5.00
2022-12-08T18:06:09.264Z,5.00
2022-12-08T18:11:15.309Z,5.00
2022-12-08T18:16:19.657Z,5.00
2022-12-08T18:21:23.782Z,5.00
2022-12-08T18:26:26.365Z,5.00
2022-12-08T18:31:28.673Z,5.00
2022-12-08T18:36:30.949Z,5.00
2022-12-08T18:41:33.277Z,5.00
2022-12-08T18:46:35.502Z,4.90
2022-12-08T18:51:37.785Z,4.90
2022-12-08T18:56:40.230Z,4.80
2022-12-08T19:01:42.718Z,4.70
2022-12-08T19:06:45.571Z,4.50
2022-12-08T19:11:47.897Z,4.50
2022-12-08T19:16:50.405Z,4.60
2022-12-08T19:21:52.934Z,4.70
2022-12-08T19:26:55.215Z,4.60
2022-12-08T19:31:57.825Z,4.50
2022-12-08T19:37:00.209Z,4.30
2022-12-08T19:42:21.606Z,4.20
2022-12-08T19:47:26.243Z,4.10
2022-12-08T19:52:28.651Z,4.10
2022-12-08T19:57:30.894Z,4.10
2022-12-08T20:02:33.408Z,4.10
2022-12-08T20:07:36.368Z,4.10
2022-12-08T20:12:38.530Z,4.00
2022-12-08T20:17:41.812Z,3.90
2022-12-08T20:22:45.353Z,3.90
2022-12-08T20:27:47.609Z,4.00
2022-12-08T20:32:49.807Z,4.10
2022-12-08T20:37:52.123Z,4.10
2022-12-08T20:42:54.366Z,4.20
2022-12-08T20:47:56.869Z,4.10
2022-12-08T20:52:59.330Z,4.00
2022-12-08T20:58:01.999Z,4.00
2022-12-08T21:03:04.622Z,4.00
2022-12-08T21:08:07.569Z,4.00
2022-12-08T21:13:09.865Z,4.00
2022-12-08T21:18:12.575Z,3.90
2022-12-08T21:23:15.978Z,4.00
2022-12-08T21:28:18.462Z,3.90
2022-12-08T21:33:20.827Z,3.90
2022-12-08T21:38:23.236Z,3.70
2022-12-08T21:43:25.486Z,3.50
2022-12-08T21:48:28.189Z,3.40
2022-12-08T21:53:30.524Z,3.30
2022-12-08T21:58:32.820Z,3.10
2022-12-08T22:03:35.986Z,2.90
2022-12-08T22:08:38.825Z,2.90
2022-12-08T22:13:42.063Z,2.90
2022-12-08T22:18:44.543Z,2.90
2022-12-08T22:23:47.100Z,2.80
2022-12-08T22:28:49.413Z,2.90
2022-12-08T22:33:51.730Z,2.70
2022-12-08T22:38:54.962Z,2.60
2022-12-08T22:43:57.194Z,2.50
2022-12-08T22:48:59.681Z,2.40
2022-12-08T22:54:02.170Z,2.20
2022-12-08T22:59:04.911Z,2.10
2022-12-08T23:04:11.330Z,2.10
2022-12-08T23:09:16.712Z,2.00
2022-12-08T23:14:18.959Z,1.90
2022-12-08T23:19:21.159Z,1.80
2022-12-08T23:24:23.341Z,1.50
2022-12-08T23:29:25.612Z,1.40
2022-12-08T23:34:28.148Z,1.30
2022-12-08T23:39:30.734Z,1.10
2022-12-08T23:44:33.216Z,1.00
2022-12-08T23:49:35.455Z,1.00
2022-12-08T23:54:37.777Z,0.90
2022-12-08T23:59:40.067Z,0.90
